Time;durP1;ratioP1;P1;durP2;ratioP2;P2;SDS_P1;SDS_P2;PMS_P1;PMS_P2;Temp;Humidity;BMP_temperature;BMP_pressure;BME280_temperature;BME280_humidity;BME280_pressure;Samples;Min_cycle;Max_cycle;Signal;HPM_P1;HPM_P2
2022/01/18 00:00:39;;;;;;;20.43;4.70;;;1.90;99.90;;;;;;5075371;28;20474;-71
2022/01/18 00:03:06;;;;;;;18.53;5.33;;;1.90;99.90;;;;;;5075296;28;20458;-72
2022/01/18 00:05:33;;;;;;;32.43;6.67;;;1.80;99.90;;;;;;5074928;28;20485;-71
2022/01/18 00:08:00;;;;;;;22.10;6.00;;;1.80;99.90;;;;;;5075401;28;20450;-72
2022/01/18 00:10:30;;;;;;;17.77;5.30;;;1.80;99.90;;;;;;5074724;28;20923;-71
2022/01/18 00:13:23;;;;;;;27.03;5.70;;;1.80;99.90;;;;;;5074830;28;20830;-72
2022/01/18 00:16:09;;;;;;;20.70;5.50;;;1.80;99.90;;;;;;5075828;28;20523;-72
2022/01/18 00:18:37;;;;;;;21.47;5.30;;;1.80;99.90;;;;;;5075055;28;20883;-72
2022/01/18 00:21:18;;;;;;;34.07;5.87;;;1.80;99.90;;;;;;5075479;28;20545;-71
2022/01/18 00:23:45;;;;;;;17.60;4.60;;;1.80;99.90;;;;;;5075952;28;20438;-72
2022/01/18 00:26:12;;;;;;;26.27;6.87;;;1.80;99.90;;;;;;5075330;28;20565;-71
2022/01/18 00:28:40;;;;;;;16.60;4.90;;;1.70;99.90;;;;;;5075136;28;20462;-71
2022/01/18 00:34:01;;;;;;;25.47;4.60;;;1.70;99.90;;;;;;5074431;28;20426;-71
2022/01/18 00:36:37;;;;;;;22.97;4.30;;;1.60;99.90;;;;;;5077914;28;20434;-71
2022/01/18 00:39:06;;;;;;;18.23;5.67;;;1.60;99.90;;;;;;5079007;28;20563;-73
2022/01/18 00:41:33;;;;;;;18.77;4.50;;;1.60;99.90;;;;;;5078775;28;20458;-72
2022/01/18 00:44:00;;;;;;;18.30;5.00;;;1.60;99.90;;;;;;5079058;28;20915;-71
2022/01/18 00:46:31;;;;;;;24.23;4.87;;;1.60;99.90;;;;;;5078469;28;20954;-72
2022/01/18 00:49:01;;;;;;;17.80;4.70;;;1.60;99.90;;;;;;5078183;28;20542;-71
2022/01/18 00:51:30;;;;;;;17.93;4.80;;;1.60;99.90;;;;;;5078567;28;20483;-71
2022/01/18 00:53:59;;;;;;;19.30;4.73;;;1.60;99.90;;;;;;5078279;28;20455;-73
2022/01/18 00:56:29;;;;;;;29.23;5.87;;;1.60;99.90;;;;;;5078293;28;20454;-71
2022/01/18 00:58:56;;;;;;;21.93;4.13;;;1.50;99.90;;;;;;5078389;28;20827;-71
2022/01/18 01:01:24;;;;;;;28.53;5.10;;;1.50;99.90;;;;;;5078209;28;20462;-72
2022/01/18 01:03:56;;;;;;;18.20;5.60;;;1.50;99.90;;;;;;5078390;28;20458;-72
2022/01/18 01:06:24;;;;;;;17.53;4.40;;;1.50;99.90;;;;;;5078990;28;20549;-72
2022/01/18 01:08:50;;;;;;;17.63;4.77;;;1.50;99.90;;;;;;5078437;28;20465;-72
2022/01/18 01:11:21;;;;;;;24.67;5.07;;;1.50;99.90;;;;;;5077854;28;20515;-72
2022/01/18 01:13:50;;;;;;;25.53;5.30;;;1.40;99.90;;;;;;5078591;28;20449;-72
2022/01/18 01:16:42;;;;;;;17.67;4.73;;;1.40;99.90;;;;;;5079137;28;20767;-72
2022/01/18 01:19:27;;;;;;;29.00;4.90;;;1.40;99.90;;;;;;5078897;28;20447;-72
2022/01/18 01:36:35;;;;;;;20.77;5.90;;;1.30;99.90;;;;;;5077827;28;20475;-71
2022/01/18 01:42:03;;;;;;;18.57;5.47;;;1.30;99.90;;;;;;5077528;28;20504;-72
2022/01/18 01:47:21;;;;;;;16.53;5.00;;;1.30;99.90;;;;;;5076555;28;20459;-71
2022/01/18 01:49:50;;;;;;;23.53;5.67;;;1.30;99.90;;;;;;5077829;28;20438;-71
2022/01/18 01:52:21;;;;;;;27.40;5.83;;;1.30;99.90;;;;;;5078063;28;20451;-72
2022/01/18 01:54:48;;;;;;;18.20;4.20;;;1.30;99.90;;;;;;5077390;28;20906;-72
2022/01/18 01:57:15;;;;;;;21.77;5.77;;;1.30;99.90;;;;;;5077305;28;20517;-71
2022/01/18 01:59:41;;;;;;;26.23;5.07;;;1.30;99.90;;;;;;5077538;28;20454;-71
2022/01/18 02:02:08;;;;;;;20.03;7.40;;;1.30;99.90;;;;;;5077371;28;20488;-72
2022/01/18 02:04:35;;;;;;;23.70;5.20;;;1.20;99.90;;;;;;5077290;28;20450;-71
2022/01/18 02:07:02;;;;;;;25.43;5.87;;;1.30;99.90;;;;;;5077354;28;20800;-71
2022/01/18 02:09:31;;;;;;;28.83;5.00;;;1.20;99.90;;;;;;5077661;28;20789;-71
2022/01/18 02:12:00;;;;;;;18.50;5.00;;;1.20;99.90;;;;;;5076933;28;20458;-72
2022/01/18 02:14:28;;;;;;;20.57;4.80;;;1.20;99.90;;;;;;5077521;28;20469;-72
2022/01/18 02:22:25;;;;;;;19.77;5.20;;;1.10;99.90;;;;;;5076955;28;20429;-70
2022/01/18 02:24:52;;;;;;;25.23;7.00;;;1.10;99.90;;;;;;5077247;28;20469;-70
2022/01/18 02:27:21;;;;;;;15.20;4.73;;;1.10;99.90;;;;;;5076834;28;20482;-71
2022/01/18 02:29:47;;;;;;;24.60;5.33;;;1.10;99.90;;;;;;5077572;28;20464;-72
2022/01/18 02:32:14;;;;;;;19.00;7.27;;;1.20;99.90;;;;;;5076883;28;20458;-71
2022/01/18 02:34:41;;;;;;;21.67;4.83;;;1.10;99.90;;;;;;5076833;28;20469;-71
2022/01/18 02:37:10;;;;;;;26.17;4.80;;;1.10;99.90;;;;;;5076832;28;20454;-71
2022/01/18 02:39:39;;;;;;;14.37;4.87;;;1.10;99.90;;;;;;5076935;28;20454;-71
2022/01/18 02:42:07;;;;;;;25.23;5.33;;;1.10;99.90;;;;;;5076556;28;20523;-72
2022/01/18 02:44:37;;;;;;;22.07;5.43;;;1.10;99.90;;;;;;5076679;28;20462;-71
2022/01/18 02:47:05;;;;;;;18.83;4.70;;;1.10;99.90;;;;;;5075795;28;21024;-70
2022/01/18 02:49:32;;;;;;;21.47;4.50;;;1.00;99.90;;;;;;5076486;28;20442;-71
2022/01/18 02:52:00;;;;;;;13.67;4.57;;;1.10;99.90;;;;;;5075922;28;20851;-71
2022/01/18 02:54:27;;;;;;;24.33;4.60;;;1.10;99.90;;;;;;5077087;28;20849;-71
2022/01/18 02:56:59;;;;;;;34.30;5.30;;;1.10;99.90;;;;;;5076068;28;20458;-71
2022/01/18 02:59:32;;;;;;;19.63;4.13;;;1.00;99.90;;;;;;5076208;28;20454;-71
2022/01/18 03:04:46;;;;;;;24.40;5.03;;;1.00;99.90;;;;;;5076380;28;20575;-72
2022/01/18 03:07:14;;;;;;;21.03;4.60;;;1.00;99.90;;;;;;5075901;28;20478;-72
2022/01/18 03:09:40;;;;;;;28.27;4.63;;;1.00;99.90;;;;;;5076390;28;20821;-71
2022/01/18 03:12:11;;;;;;;21.97;4.53;;;1.00;99.90;;;;;;5076234;28;20919;-71
2022/01/18 03:14:38;;;;;;;18.37;3.93;;;1.00;99.90;;;;;;5075833;28;20458;-72
2022/01/18 03:17:06;;;;;;;23.00;5.07;;;1.00;99.90;;;;;;5075779;28;20450;-72
2022/01/18 03:19:33;;;;;;;30.90;5.80;;;1.00;99.90;;;;;;5075683;28;20458;-70
2022/01/18 03:21:59;;;;;;;28.23;5.60;;;1.00;99.90;;;;;;5075554;28;20457;-71
2022/01/18 03:24:48;;;;;;;23.23;5.03;;;1.00;99.90;;;;;;5075412;28;20465;-71
2022/01/18 03:30:06;;;;;;;18.77;4.67;;;1.00;99.90;;;;;;5075838;28;20446;-72
2022/01/18 03:32:33;;;;;;;20.53;5.07;;;1.10;99.90;;;;;;5075315;28;20884;-70
2022/01/18 03:34:59;;;;;;;14.87;4.60;;;1.00;99.90;;;;;;5075867;28;20515;-72
2022/01/18 03:37:26;;;;;;;18.37;4.67;;;1.10;99.90;;;;;;5075696;28;20454;-72
2022/01/18 03:39:53;;;;;;;21.50;5.00;;;1.10;99.90;;;;;;5076176;28;20454;-72
2022/01/18 03:42:38;;;;;;;17.60;4.00;;;1.10;99.90;;;;;;5075691;28;20482;-71
2022/01/18 03:45:07;;;;;;;23.30;4.83;;;1.10;99.90;;;;;;5075513;28;20450;-71
2022/01/18 03:47:35;;;;;;;29.00;5.77;;;1.10;99.90;;;;;;5074979;28;20490;-71
2022/01/18 03:50:04;;;;;;;19.33;5.13;;;1.10;99.90;;;;;;5075480;28;20497;-71
2022/01/18 03:52:30;;;;;;;21.63;6.60;;;1.10;99.90;;;;;;5075183;28;20801;-71
2022/01/18 03:54:57;;;;;;;19.23;4.77;;;1.10;99.90;;;;;;5075572;28;20824;-71
2022/01/18 03:57:25;;;;;;;16.57;4.80;;;1.00;99.90;;;;;;5075494;28;20458;-71
2022/01/18 03:59:52;;;;;;;23.23;4.40;;;1.10;99.90;;;;;;5075449;28;20487;-72
2022/01/18 04:02:19;;;;;;;22.93;4.50;;;1.10;99.90;;;;;;5074879;28;20922;-71
2022/01/18 04:04:46;;;;;;;17.93;4.53;;;1.10;99.90;;;;;;5075039;28;20466;-70
2022/01/18 04:07:14;;;;;;;26.67;5.93;;;1.00;99.90;;;;;;5075382;28;20482;-71
2022/01/18 04:09:40;;;;;;;32.37;6.30;;;1.00;99.90;;;;;;5076884;28;20462;-71
2022/01/18 04:12:08;;;;;;;20.07;6.33;;;1.00;99.90;;;;;;5081911;28;20578;-71
2022/01/18 04:14:36;;;;;;;23.03;4.97;;;1.00;99.90;;;;;;5081956;28;20464;-71
2022/01/18 04:17:10;;;;;;;21.03;5.00;;;1.00;99.90;;;;;;5081862;28;20564;-71
2022/01/18 04:28:11;;;;;;;23.67;5.77;;;1.10;99.90;;;;;;5077332;28;20488;-72
2022/01/18 04:30:39;;;;;;;20.83;4.00;;;1.00;99.90;;;;;;5081731;28;20448;-72
2022/01/18 04:33:06;;;;;;;22.07;4.57;;;1.00;99.90;;;;;;5082092;28;20519;-72
2022/01/18 04:35:32;;;;;;;17.40;4.20;;;1.10;99.90;;;;;;5081776;28;20466;-72
2022/01/18 04:37:59;;;;;;;18.23;5.00;;;1.10;99.90;;;;;;5082846;28;20768;-71
2022/01/18 04:40:29;;;;;;;16.03;4.40;;;1.20;99.90;;;;;;5082379;28;20454;-71
2022/01/18 04:43:07;;;;;;;20.00;5.90;;;1.20;99.90;;;;;;5082044;28;20454;-71
2022/01/18 04:48:28;;;;;;;18.60;4.47;;;1.30;99.90;;;;;;5082235;28;20585;-71
2022/01/18 04:50:57;;;;;;;19.00;4.83;;;1.30;99.90;;;;;;5082346;28;20429;-71
2022/01/18 04:53:29;;;;;;;17.73;5.23;;;1.30;99.90;;;;;;5082483;28;20462;-71
2022/01/18 04:55:57;;;;;;;21.13;4.67;;;1.30;99.90;;;;;;5082035;28;20457;-71
2022/01/18 04:58:26;;;;;;;16.90;5.93;;;1.40;99.90;;;;;;5082191;28;20426;-71
2022/01/18 05:00:55;;;;;;;18.70;4.70;;;1.40;99.90;;;;;;5081980;28;20910;-71
2022/01/18 05:03:22;;;;;;;16.73;4.70;;;1.50;99.90;;;;;;5082094;28;20476;-72
2022/01/18 05:05:52;;;;;;;19.27;4.40;;;1.50;99.90;;;;;;5081825;28;20914;-72
2022/01/18 05:08:19;;;;;;;13.87;4.27;;;1.50;99.90;;;;;;5082879;28;20442;-72
2022/01/18 05:10:51;;;;;;;19.50;4.87;;;1.60;99.90;;;;;;5081475;28;20458;-72
2022/01/18 05:13:34;;;;;;;15.60;4.57;;;1.60;99.90;;;;;;5081740;28;20905;-72
2022/01/18 05:16:18;;;;;;;14.40;4.37;;;1.70;99.90;;;;;;5081925;28;20476;-72
2022/01/18 05:19:07;;;;;;;20.97;3.87;;;1.70;99.90;;;;;;5081744;28;20481;-71
2022/01/18 05:22:56;;;;;;;12.27;3.63;;;1.70;99.90;;;;;;5079001;28;20459;-71
2022/01/18 05:24:23;;;;;;;15.77;4.53;;;1.70;99.90;;;;;;5078896;28;20435;-71
2022/01/18 05:26:50;;;;;;;25.77;3.80;;;1.70;99.90;;;;;;5079964;28;20486;-71
2022/01/18 05:29:17;;;;;;;15.27;4.20;;;1.70;99.90;;;;;;5079597;28;20458;-71
2022/01/18 05:31:44;;;;;;;17.20;4.40;;;1.70;99.90;;;;;;5079532;28;20450;-71
2022/01/18 05:34:11;;;;;;;22.53;4.43;;;1.80;99.90;;;;;;5079581;28;20462;-71
2022/01/18 05:36:39;;;;;;;26.10;4.63;;;1.80;99.90;;;;;;5077625;28;20791;-71
2022/01/18 05:39:09;;;;;;;12.70;3.33;;;1.80;99.90;;;;;;5077337;28;20483;-71
2022/01/18 05:41:35;;;;;;;21.10;5.70;;;1.90;99.90;;;;;;5077389;28;20907;-71
2022/01/18 05:44:03;;;;;;;15.60;3.93;;;1.90;99.90;;;;;;5077555;28;20466;-71
2022/01/18 05:46:29;;;;;;;17.40;4.00;;;1.90;99.90;;;;;;5077030;28;20482;-70
2022/01/18 05:49:00;;;;;;;14.10;4.47;;;1.90;99.90;;;;;;5076779;28;20486;-71
2022/01/18 05:51:27;;;;;;;18.67;4.40;;;1.90;99.90;;;;;;5076968;28;20534;-71
2022/01/18 05:53:55;;;;;;;21.10;5.00;;;1.90;99.90;;;;;;5077559;28;20458;-71
2022/01/18 05:56:22;;;;;;;16.30;4.30;;;1.90;99.90;;;;;;5076718;28;20937;-72
2022/01/18 05:58:49;;;;;;;20.50;4.27;;;1.80;99.90;;;;;;5077572;28;20469;-71
2022/01/18 06:01:24;;;;;;;24.73;4.43;;;1.80;99.90;;;;;;5076940;28;20455;-70
2022/01/18 06:03:53;;;;;;;20.10;4.37;;;1.80;99.90;;;;;;5077021;28;20457;-71
2022/01/18 06:09:05;;;;;;;17.83;5.10;;;1.90;99.90;;;;;;5078905;28;20428;-71
2022/01/18 06:11:35;;;;;;;19.23;5.80;;;1.80;99.90;;;;;;5078647;28;20798;-71
2022/01/18 06:14:02;;;;;;;16.63;5.43;;;1.80;99.90;;;;;;5081403;28;20511;-71
2022/01/18 06:16:29;;;;;;;22.33;5.07;;;1.80;99.90;;;;;;5078774;28;20465;-71
2022/01/18 06:18:55;;;;;;;24.03;4.60;;;1.80;99.90;;;;;;5078430;28;20454;-70
2022/01/18 06:21:23;;;;;;;22.97;4.73;;;1.70;99.90;;;;;;5078419;28;20515;-70
2022/01/18 06:23:50;;;;;;;18.17;5.73;;;1.70;99.90;;;;;;5078117;28;20469;-71
2022/01/18 06:26:18;;;;;;;17.70;4.53;;;1.70;99.90;;;;;;5076983;28;20470;-70
2022/01/18 06:28:45;;;;;;;28.27;5.60;;;1.70;99.90;;;;;;5078375;28;20843;-71
2022/01/18 06:31:12;;;;;;;24.83;4.87;;;1.70;99.90;;;;;;5079138;28;20488;-71
2022/01/18 06:33:38;;;;;;;13.37;3.30;;;1.70;99.90;;;;;;5083160;28;20458;-71
2022/01/18 06:36:06;;;;;;;18.93;4.47;;;1.70;99.90;;;;;;5085388;28;20946;-71
2022/01/18 06:38:36;;;;;;;15.50;4.83;;;1.70;99.90;;;;;;5084922;28;20829;-71
2022/01/18 06:41:04;;;;;;;20.73;4.10;;;1.70;99.90;;;;;;5084206;28;20458;-71
2022/01/18 06:43:32;;;;;;;15.13;3.90;;;1.70;99.90;;;;;;5083324;28;20454;-72
2022/01/18 06:45:58;;;;;;;14.07;4.67;;;1.70;99.90;;;;;;5082996;28;20461;-70
2022/01/18 06:48:25;;;;;;;24.43;5.37;;;1.60;99.90;;;;;;5081216;28;20539;-71
2022/01/18 06:50:52;;;;;;;32.13;4.93;;;1.70;99.90;;;;;;5081289;28;20472;-72
2022/01/18 06:53:18;;;;;;;15.60;4.47;;;1.70;99.90;;;;;;5080753;28;20837;-72
2022/01/18 06:55:51;;;;;;;19.10;4.00;;;1.70;99.90;;;;;;5080082;28;20458;-72
2022/01/18 06:58:17;;;;;;;11.33;4.37;;;1.70;99.90;;;;;;5078586;28;20439;-72
2022/01/18 07:00:45;;;;;;;18.83;4.73;;;1.80;99.90;;;;;;5076931;28;20516;-72
2022/01/18 07:03:12;;;;;;;17.00;4.80;;;1.80;99.90;;;;;;5076840;28;20458;-72
2022/01/18 07:05:39;;;;;;;20.23;7.07;;;1.80;99.90;;;;;;5075596;28;20458;-71
2022/01/18 07:08:06;;;;;;;24.43;6.03;;;1.80;99.90;;;;;;5075551;28;20974;-72
2022/01/18 07:10:33;;;;;;;19.20;5.20;;;1.90;99.90;;;;;;5076682;28;20644;-75
2022/01/18 07:13:00;;;;;;;16.80;5.77;;;1.90;99.90;;;;;;5076383;28;20519;-72
2022/01/18 07:15:27;;;;;;;20.43;6.30;;;2.00;99.90;;;;;;5076109;28;20454;-71
2022/01/18 07:17:55;;;;;;;17.03;5.30;;;2.10;99.90;;;;;;5075951;28;20458;-71
2022/01/18 07:20:22;;;;;;;21.10;5.73;;;2.10;99.90;;;;;;5075397;28;20515;-71
2022/01/18 07:22:49;;;;;;;23.63;4.13;;;2.20;99.90;;;;;;5075515;28;20957;-71
2022/01/18 07:25:17;;;;;;;21.00;4.67;;;2.20;99.90;;;;;;5076700;28;20915;-72
2022/01/18 07:27:44;;;;;;;18.00;4.70;;;2.30;99.90;;;;;;5076408;28;20509;-71
2022/01/18 07:30:12;;;;;;;15.33;4.30;;;2.30;99.90;;;;;;5075311;28;21033;-71
2022/01/18 07:32:38;;;;;;;16.50;4.23;;;2.40;99.90;;;;;;5075371;28;20458;-71
2022/01/18 07:35:08;;;;;;;14.17;4.27;;;2.50;99.90;;;;;;5074800;28;20461;-71
2022/01/18 07:37:35;;;;;;;17.10;4.70;;;2.50;99.90;;;;;;5075178;28;20523;-72
2022/01/18 07:40:02;;;;;;;12.83;4.13;;;2.60;99.90;;;;;;5074813;28;20458;-72
2022/01/18 07:42:29;;;;;;;15.33;5.00;;;2.60;99.90;;;;;;5074965;28;20454;-71
2022/01/18 07:44:56;;;;;;;17.50;3.60;;;2.60;99.90;;;;;;5074071;28;20899;-72
2022/01/18 07:47:23;;;;;;;17.33;3.97;;;2.70;99.90;;;;;;5074652;28;20604;-71
2022/01/18 07:49:50;;;;;;;12.93;4.10;;;2.70;99.90;;;;;;5074975;28;20488;-71
2022/01/18 07:52:19;;;;;;;10.77;3.80;;;2.70;99.90;;;;;;5074969;28;20462;-71
2022/01/18 07:54:46;;;;;;;10.67;4.33;;;2.80;99.90;;;;;;5075117;28;20777;-71
2022/01/18 07:57:16;;;;;;;28.63;5.00;;;2.80;99.90;;;;;;5075171;28;20454;-71
2022/01/18 07:59:43;;;;;;;19.20;4.60;;;2.90;99.90;;;;;;5078437;28;20527;-71
2022/01/18 08:02:09;;;;;;;12.77;3.80;;;3.00;99.90;;;;;;5079390;28;20468;-71
2022/01/18 08:04:36;;;;;;;16.50;4.37;;;3.10;99.90;;;;;;5077410;28;20462;-71
2022/01/18 08:07:04;;;;;;;12.80;4.43;;;3.10;99.90;;;;;;5076262;28;20476;-71
2022/01/18 08:09:32;;;;;;;17.50;3.73;;;3.20;99.90;;;;;;5075772;28;20458;-72
2022/01/18 08:11:59;;;;;;;14.13;3.67;;;3.20;99.90;;;;;;5076850;28;20454;-72
2022/01/18 08:14:29;;;;;;;15.00;6.77;;;3.30;99.90;;;;;;5076685;28;20523;-71
2022/01/18 08:17:04;;;;;;;13.90;3.73;;;3.30;99.90;;;;;;5078990;28;20459;-71
2022/01/18 08:19:34;;;;;;;10.43;4.30;;;3.30;99.90;;;;;;5078854;28;20458;-71
2022/01/18 08:22:02;;;;;;;17.47;5.27;;;3.40;99.90;;;;;;5075616;28;20565;-71
2022/01/18 08:24:33;;;;;;;18.50;4.77;;;3.40;99.90;;;;;;5075582;28;20454;-71
2022/01/18 08:27:00;;;;;;;18.83;4.47;;;3.50;99.90;;;;;;5075335;28;20982;-72
2022/01/18 08:29:27;;;;;;;14.77;4.17;;;3.50;99.90;;;;;;5075259;28;20454;-71
2022/01/18 08:31:54;;;;;;;18.90;3.87;;;3.60;99.90;;;;;;5075047;28;20466;-71
2022/01/18 08:34:26;;;;;;;15.47;4.40;;;3.60;99.90;;;;;;5075484;28;20469;-71
2022/01/18 08:36:54;;;;;;;13.07;4.33;;;3.70;99.90;;;;;;5075417;28;20449;-72
2022/01/18 08:39:21;;;;;;;18.17;4.17;;;3.70;99.90;;;;;;5076203;28;20934;-71
2022/01/18 08:41:49;;;;;;;11.80;4.30;;;3.70;99.90;;;;;;5076519;28;20533;-71
2022/01/18 08:44:17;;;;;;;14.67;4.80;;;3.70;99.90;;;;;;5075153;28;20834;-72
2022/01/18 08:46:49;;;;;;;22.07;4.97;;;3.80;99.90;;;;;;5075215;28;20468;-72
2022/01/18 08:49:16;;;;;;;17.63;5.10;;;3.80;99.90;;;;;;5075049;28;20555;-71
2022/01/18 08:51:46;;;;;;;19.00;4.40;;;3.90;99.90;;;;;;5074491;28;20466;-72
2022/01/18 08:54:13;;;;;;;19.13;4.77;;;3.90;99.90;;;;;;5075156;28;20458;-72
2022/01/18 08:56:43;;;;;;;15.30;4.00;;;3.90;99.90;;;;;;5076635;28;20922;-72
2022/01/18 08:59:11;;;;;;;16.13;4.03;;;4.00;99.90;;;;;;5079037;28;20507;-74
2022/01/18 09:01:38;;;;;;;13.83;4.40;;;4.00;99.90;;;;;;5078392;28;20527;-72
2022/01/18 09:04:05;;;;;;;17.83;4.73;;;4.10;99.90;;;;;;5078434;28;20447;-72
2022/01/18 09:06:32;;;;;;;18.67;4.90;;;4.10;99.90;;;;;;5078035;28;20468;-72
2022/01/18 09:09:00;;;;;;;12.63;4.40;;;4.10;99.90;;;;;;5078179;28;20485;-72
2022/01/18 09:11:31;;;;;;;11.23;4.40;;;4.10;99.90;;;;;;5077711;28;20458;-72
2022/01/18 09:13:58;;;;;;;17.80;4.27;;;4.10;99.90;;;;;;5077902;28;20482;-72
2022/01/18 09:16:26;;;;;;;18.10;4.63;;;4.20;99.90;;;;;;5077980;28;20462;-71
2022/01/18 09:18:53;;;;;;;12.20;4.57;;;4.30;99.90;;;;;;5077694;28;20741;-72
2022/01/18 09:21:19;;;;;;;12.17;4.60;;;4.30;99.90;;;;;;5077827;28;20456;-71
2022/01/18 09:23:46;;;;;;;19.50;4.57;;;4.40;99.90;;;;;;5077700;28;20458;-72
2022/01/18 09:26:16;;;;;;;9.93;4.23;;;4.50;99.90;;;;;;5078111;28;20465;-73
2022/01/18 09:28:43;;;;;;;14.80;3.83;;;4.50;99.90;;;;;;5078037;28;20478;-72
2022/01/18 09:31:11;;;;;;;16.37;4.53;;;4.60;99.90;;;;;;5078334;28;20454;-72
2022/01/18 09:33:41;;;;;;;8.73;4.60;;;4.60;99.90;;;;;;5077673;28;20541;-73
2022/01/18 09:36:07;;;;;;;10.57;3.97;;;4.60;99.90;;;;;;5078365;28;20458;-72
2022/01/18 09:38:34;;;;;;;18.40;4.27;;;4.60;99.90;;;;;;5077967;28;20454;-74
2022/01/18 09:41:08;;;;;;;24.03;4.67;;;4.60;99.90;;;;;;5077000;28;20868;-72
2022/01/18 09:43:35;;;;;;;12.03;3.70;;;4.60;99.90;;;;;;5076900;28;20891;-73
2022/01/18 09:46:02;;;;;;;13.20;4.13;;;4.60;99.90;;;;;;5077286;28;20557;-71
2022/01/18 09:48:29;;;;;;;10.00;3.70;;;4.60;99.90;;;;;;5076399;28;20478;-72
2022/01/18 09:50:59;;;;;;;14.00;4.13;;;4.60;99.90;;;;;;5076904;28;20462;-72
2022/01/18 09:53:25;;;;;;;13.33;4.30;;;4.70;99.90;;;;;;5077032;28;20466;-72
2022/01/18 09:55:53;;;;;;;13.27;3.90;;;4.70;99.90;;;;;;5077185;28;20454;-72
2022/01/18 09:58:21;;;;;;;19.53;4.10;;;4.70;99.90;;;;;;5077081;28;20490;-71
2022/01/18 10:00:50;;;;;;;10.50;3.90;;;4.70;99.90;;;;;;5078332;28;20469;-72
2022/01/18 10:03:29;;;;;;;12.17;3.60;;;4.70;99.90;;;;;;5078233;28;20458;-73
2022/01/18 10:05:58;;;;;;;11.03;4.47;;;4.80;99.90;;;;;;5078237;28;20458;-72
2022/01/18 10:08:25;;;;;;;13.63;4.27;;;4.80;99.90;;;;;;5076301;28;20474;-73
2022/01/18 10:10:57;;;;;;;12.70;3.27;;;4.80;99.90;;;;;;5077754;28;20454;-72
2022/01/18 10:13:25;;;;;;;17.00;3.83;;;4.80;99.90;;;;;;5078937;28;20447;-73
2022/01/18 10:16:04;;;;;;;17.93;4.20;;;4.90;99.90;;;;;;5078226;28;20462;-73
2022/01/18 10:18:47;;;;;;;14.20;3.83;;;5.00;99.90;;;;;;5078717;28;20458;-72
2022/01/18 10:21:28;;;;;;;12.10;3.87;;;5.10;99.90;;;;;;5078446;28;20500;-72
2022/01/18 10:24:12;;;;;;;12.50;3.47;;;5.10;99.90;;;;;;5077527;28;20447;-71
2022/01/18 10:26:41;;;;;;;11.93;3.93;;;5.10;99.90;;;;;;5077769;28;20474;-73
2022/01/18 10:29:09;;;;;;;9.20;3.13;;;5.20;99.90;;;;;;5077271;28;20478;-73
2022/01/18 10:31:41;;;;;;;8.50;3.50;;;5.30;99.90;;;;;;5076623;28;20557;-73
2022/01/18 10:34:20;;;;;;;10.83;2.93;;;5.30;99.90;;;;;;5077198;28;20443;-74
2022/01/18 10:36:59;;;;;;;7.57;3.00;;;5.50;99.90;;;;;;5077032;28;20745;-71
2022/01/18 10:39:28;;;;;;;9.83;3.60;;;5.50;99.90;;;;;;5076691;28;20434;-73
2022/01/18 10:41:55;;;;;;;24.77;11.73;;;5.60;99.90;;;;;;5077245;28;20454;-72
2022/01/18 10:44:23;;;;;;;14.63;4.17;;;5.70;99.90;;;;;;5078735;28;20466;-72
2022/01/18 10:46:52;;;;;;;10.43;3.10;;;5.80;99.90;;;;;;5079773;28;20465;-72
2022/01/18 10:49:31;;;;;;;6.57;2.40;;;5.90;99.90;;;;;;5081329;28;20494;-72
2022/01/18 10:52:05;;;;;;;12.17;3.07;;;6.00;99.90;;;;;;5078936;28;20470;-73
2022/01/18 10:54:37;;;;;;;10.50;2.80;;;6.00;99.90;;;;;;5076327;28;20442;-73
2022/01/18 10:57:06;;;;;;;9.17;2.90;;;6.10;99.90;;;;;;5075863;28;20905;-72
2022/01/18 10:59:34;;;;;;;9.97;3.40;;;6.20;99.90;;;;;;5075322;28;20458;-72
2022/01/18 11:02:15;;;;;;;8.80;2.80;;;6.20;99.90;;;;;;5075423;28;20839;-72
2022/01/18 11:04:44;;;;;;;18.70;3.87;;;6.20;99.90;;;;;;5075647;28;20493;-71
2022/01/18 11:07:13;;;;;;;11.83;3.10;;;6.30;99.90;;;;;;5076176;28;20455;-71
2022/01/18 11:09:40;;;;;;;6.60;2.23;;;6.20;99.90;;;;;;5077955;28;20543;-71
2022/01/18 11:12:09;;;;;;;13.97;2.37;;;6.20;99.90;;;;;;5076219;28;20468;-72
2022/01/18 11:14:38;;;;;;;10.77;2.60;;;6.20;99.90;;;;;;5075811;28;20477;-73
2022/01/18 11:17:08;;;;;;;7.17;2.40;;;6.30;99.90;;;;;;5076728;28;20968;-73
2022/01/18 11:19:37;;;;;;;12.00;3.00;;;6.30;99.90;;;;;;5076911;28;20931;-73
2022/01/18 11:22:10;;;;;;;13.37;2.90;;;6.30;99.90;;;;;;5075354;28;20454;-71
2022/01/18 11:24:40;;;;;;;5.17;1.93;;;6.30;99.90;;;;;;5074899;28;20470;-72
2022/01/18 11:27:10;;;;;;;10.47;2.70;;;6.30;99.90;;;;;;5078005;28;20768;-74
2022/01/18 11:29:37;;;;;;;13.73;2.67;;;6.30;99.90;;;;;;5076024;28;20501;-71
2022/01/18 11:32:05;;;;;;;19.60;12.10;;;6.30;99.90;;;;;;5075712;28;20454;-73
2022/01/18 11:34:49;;;;;;;11.03;3.37;;;6.40;99.90;;;;;;5076876;28;20521;-72
2022/01/18 11:37:21;;;;;;;11.60;2.40;;;6.40;99.90;;;;;;5074886;28;20439;-73
2022/01/18 11:39:58;;;;;;;8.83;2.03;;;6.40;99.90;;;;;;5074879;28;20439;-72
2022/01/18 11:42:46;;;;;;;6.50;2.20;;;6.40;99.90;;;;;;5074576;28;20529;-73
2022/01/18 11:45:38;;;;;;;6.77;2.00;;;6.30;99.90;;;;;;5075257;28;20534;-73
2022/01/18 11:48:08;;;;;;;9.03;2.40;;;6.30;99.90;;;;;;5074924;28;20937;-72
2022/01/18 11:50:38;;;;;;;6.73;2.80;;;6.20;99.90;;;;;;5080398;28;20442;-71
2022/01/18 11:53:25;;;;;;;5.53;1.87;;;6.20;99.90;;;;;;5082251;28;20497;-71
2022/01/18 11:55:56;;;;;;;7.23;2.07;;;6.30;99.90;;;;;;5077526;28;20458;-70
2022/01/18 11:58:23;;;;;;;4.70;2.33;;;6.30;99.90;;;;;;5076385;28;20611;-71
2022/01/18 12:00:55;;;;;;;3.70;1.83;;;6.40;99.90;;;;;;5076865;28;20484;-71
2022/01/18 12:03:25;;;;;;;4.97;2.17;;;6.50;99.90;;;;;;5077259;28;20524;-70
2022/01/18 12:05:53;;;;;;;5.20;1.70;;;6.60;99.90;;;;;;5077227;28;20449;-71
2022/01/18 12:08:37;;;;;;;7.57;1.50;;;6.50;99.90;;;;;;5076234;28;20484;-70
2022/01/18 12:11:08;;;;;;;5.87;2.37;;;6.60;99.90;;;;;;5076189;28;20770;-71
2022/01/18 12:13:47;;;;;;;6.53;2.10;;;6.70;99.90;;;;;;5076299;28;20525;-70
2022/01/18 12:16:29;;;;;;;3.00;1.77;;;6.90;99.90;;;;;;5075944;28;20500;-71
2022/01/18 12:19:05;;;;;;;6.00;1.83;;;7.10;99.90;;;;;;5075107;28;20465;-71
2022/01/18 12:21:34;;;;;;;3.77;1.50;;;7.20;99.90;;;;;;5075578;28;20526;-71
2022/01/18 12:24:15;;;;;;;4.23;2.17;;;7.30;99.90;;;;;;5076343;28;20545;-71
2022/01/18 12:26:48;;;;;;;4.63;1.50;;;7.30;99.90;;;;;;5075171;28;20454;-71
2022/01/18 12:35:01;;;;;;;5.17;2.00;;;7.40;99.90;;;;;;5079480;28;20553;-71
2022/01/18 12:37:39;;;;;;;6.30;4.00;;;7.30;99.90;;;;;;5078979;28;20528;-71
2022/01/18 12:40:32;;;;;;;4.70;1.97;;;7.30;99.90;;;;;;5080041;28;20454;-71
2022/01/18 12:45:55;;;;;;;4.40;2.23;;;7.10;99.90;;;;;;5080141;28;20811;-71
2022/01/18 12:48:23;;;;;;;5.97;2.13;;;7.00;99.90;;;;;;5079646;28;20493;-71
2022/01/18 12:50:55;;;;;;;9.03;2.33;;;7.00;99.90;;;;;;5079974;28;20488;-70
2022/01/18 12:53:27;;;;;;;8.53;2.83;;;7.10;99.90;;;;;;5080855;28;20446;-71
2022/01/18 12:55:55;;;;;;;8.57;2.60;;;7.20;99.90;;;;;;5082893;28;20447;-71
2022/01/18 12:58:27;;;;;;;6.83;2.17;;;7.10;99.90;;;;;;5083009;28;20519;-71
2022/01/18 13:00:56;;;;;;;7.23;2.20;;;7.10;99.90;;;;;;5087274;28;20445;-71
2022/01/18 13:03:25;;;;;;;7.53;2.30;;;7.00;99.90;;;;;;5084799;28;20484;-71
2022/01/18 13:05:55;;;;;;;8.13;2.13;;;7.00;99.90;;;;;;5086080;28;20785;-71
2022/01/18 13:08:23;;;;;;;8.90;2.90;;;7.00;99.90;;;;;;5087550;28;20454;-70
2022/01/18 13:10:52;;;;;;;6.03;2.20;;;6.90;99.90;;;;;;5084683;28;20462;-73
2022/01/18 13:13:22;;;;;;;5.70;2.20;;;6.90;99.90;;;;;;5080051;28;20837;-71
2022/01/18 13:16:06;;;;;;;7.70;2.00;;;6.90;99.90;;;;;;5079776;28;20544;-73
2022/01/18 13:26:55;;;;;;;8.73;2.50;;;6.70;99.90;;;;;;5076222;28;20445;-71
2022/01/18 13:29:25;;;;;;;5.90;1.97;;;6.60;99.90;;;;;;5078781;28;20517;-72
2022/01/18 13:32:06;;;;;;;6.30;2.43;;;6.60;99.90;;;;;;5078690;28;20454;-71
2022/01/18 13:34:34;;;;;;;7.63;2.47;;;6.60;99.90;;;;;;5078706;28;20500;-70
2022/01/18 13:37:04;;;;;;;5.47;2.00;;;6.60;99.90;;;;;;5079205;28;20461;-70
2022/01/18 13:39:36;;;;;;;7.00;2.30;;;6.50;99.90;;;;;;5078918;28;20435;-72
2022/01/18 13:42:04;;;;;;;8.97;3.87;;;6.50;99.90;;;;;;5077679;28;20439;-71
2022/01/18 13:44:32;;;;;;;12.67;2.50;;;6.60;99.90;;;;;;5078705;28;20477;-70
2022/01/18 13:47:14;;;;;;;7.17;2.60;;;6.50;99.90;;;;;;5078083;28;20508;-71
2022/01/18 13:49:41;;;;;;;5.10;2.80;;;6.50;99.90;;;;;;5078229;28;20466;-71
2022/01/18 13:52:10;;;;;;;8.87;2.10;;;6.50;99.90;;;;;;5079393;28;20454;-71
2022/01/18 13:54:44;;;;;;;6.80;2.77;;;6.40;99.90;;;;;;5078718;28;20454;-70
2022/01/18 13:57:11;;;;;;;8.97;2.17;;;6.40;99.90;;;;;;5079605;28;20785;-72
2022/01/18 13:59:37;;;;;;;10.87;2.80;;;6.40;99.90;;;;;;5078472;28;20466;-71
2022/01/18 14:02:12;;;;;;;8.50;2.40;;;6.30;99.90;;;;;;5077724;28;20454;-70
2022/01/18 14:04:39;;;;;;;10.63;2.37;;;6.30;99.90;;;;;;5077217;28;20895;-70
2022/01/18 14:07:08;;;;;;;7.50;2.10;;;6.30;99.90;;;;;;5077077;28;20469;-71